Time;durP1;ratioP1;P1;durP2;ratioP2;P2;SDS_P1;SDS_P2;PMS_P1;PMS_P2;Temp;Humidity;BMP_temperature;BMP_pressure;BME280_temperature;BME280_humidity;BME280_pressure;Samples;Min_cycle;Max_cycle;Signal;HPM_P1;HPM_P2
2022/07/25 00:01:13;;;;;;;;;;;;;;;;;;4997066;28;20036;-45
2022/07/25 00:03:39;;;;;;;;;;;;;;;;;;5007866;28;19918;-44
2022/07/25 00:06:05;;;;;;;;;;;;;;;;;;5008039;28;19916;-45
2022/07/25 00:08:31;;;;;;;;;;;;;;;;;;5007788;28;19914;-45
2022/07/25 00:10:57;;;;;;;;;;;;;;;;;;5008824;28;19909;-47
2022/07/25 00:13:23;;;;;;;;;;;;;;;;;;5008246;28;19913;-47
2022/07/25 00:15:49;;;;;;;;;;;;;;;;;;4998601;28;20559;-45
2022/07/25 00:18:17;;;;;;;;;;;;;;;;;;4987642;28;20220;-45
2022/07/25 00:20:42;;;;;;;;;;;;;;;;;;4987839;28;20413;-47
2022/07/25 00:23:08;;;;;;;;;;;;;;;;;;4987939;28;19914;-44
2022/07/25 00:25:34;;;;;;;;;;;;;;;;;;4987768;28;19909;-47
2022/07/25 00:28:00;;;;;;;;;;;;;;;;;;4987734;28;20390;-45
2022/07/25 00:30:26;;;;;;;;;;;;;;;;;;4991600;28;19914;-44
2022/07/25 00:32:52;;;;;;;;;;;;;;;;;;5007705;28;19999;-45
2022/07/25 00:35:18;;;;;;;;;;;;;;;;;;5007498;28;20442;-44
2022/07/25 00:37:44;;;;;;;;;;;;;;;;;;5007615;28;19987;-46
2022/07/25 00:40:10;;;;;;;;;;;;;;;;;;4996837;28;20001;-46
2022/07/25 00:42:36;;;;;;;;;;;;;;;;;;4987619;28;20001;-44
2022/07/25 00:45:02;;;;;;;;;;;;;;;;;;4988098;28;19910;-45
2022/07/25 00:47:29;;;;;;;;;;;;;;;;;;4988269;28;19918;-47
2022/07/25 00:49:55;;;;;;;;;;;;;;;;;;4988289;28;19924;-43
2022/07/25 00:52:22;;;;;;;;;;;;;;;;;;4987479;28;19910;-45
2022/07/25 00:54:48;;;;;;;;;;;;;;;;;;4987485;28;19918;-46
2022/07/25 00:57:14;;;;;;;;;;;;;;;;;;4987854;28;19917;-44
2022/07/25 00:59:40;;;;;;;;;;;;;;;;;;4987144;28;19925;-46
2022/07/25 01:02:06;;;;;;;;;;;;;;;;;;4993160;28;20005;-44
2022/07/25 01:04:32;;;;;;;;;;;;;;;;;;5006812;28;19963;-45
2022/07/25 01:06:58;;;;;;;;;;;;;;;;;;5007528;28;19924;-46
2022/07/25 01:09:24;;;;;;;;;;;;;;;;;;5006605;28;19959;-45
2022/07/25 01:11:50;;;;;;;;;;;;;;;;;;5006479;28;19913;-44
2022/07/25 01:14:16;;;;;;;;;;;;;;;;;;5007248;28;20686;-47
2022/07/25 01:16:42;;;;;;;;;;;;;;;;;;4988543;28;19936;-46
2022/07/25 01:19:08;;;;;;;;;;;;;;;;;;4997583;28;19917;-45
2022/07/25 01:21:34;;;;;;;;;;;;;;;;;;5007019;28;20040;-44
2022/07/25 01:24:00;;;;;;;;;;;;;;;;;;4994582;28;19914;-45
2022/07/25 01:26:25;;;;;;;;;;;;;;;;;;4987291;28;19910;-47
2022/07/25 01:28:51;;;;;;;;;;;;;;;;;;4987234;28;19924;-47
2022/07/25 01:31:17;;;;;;;;;;;;;;;;;;4999663;28;20072;-46
2022/07/25 01:33:43;;;;;;;;;;;;;;;;;;5006262;28;19913;-45
2022/07/25 01:36:09;;;;;;;;;;;;;;;;;;4988600;28;19913;-46
2022/07/25 01:38:35;;;;;;;;;;;;;;;;;;4987179;28;19910;-44
2022/07/25 01:41:01;;;;;;;;;;;;;;;;;;4987247;28;19913;-47
2022/07/25 01:43:27;;;;;;;;;;;;;;;;;;4986888;28;19910;-44
2022/07/25 01:45:53;;;;;;;;;;;;;;;;;;4987089;28;19913;-44
2022/07/25 01:48:19;;;;;;;;;;;;;;;;;;4986996;28;20006;-45
2022/07/25 01:50:45;;;;;;;;;;;;;;;;;;4986923;28;19920;-45
2022/07/25 01:53:11;;;;;;;;;;;;;;;;;;4987763;28;19910;-46
2022/07/25 01:55:37;;;;;;;;;;;;;;;;;;4988395;28;19913;-43
2022/07/25 01:58:03;;;;;;;;;;;;;;;;;;5006658;28;19914;-46
2022/07/25 02:00:28;;;;;;;;;;;;;;;;;;5006051;28;19929;-43
2022/07/25 02:05:39;;;;;;;;;;;;;;;;;;5006879;28;19919;-45
2022/07/25 02:08:05;;;;;;;;;;;;;;;;;;5004867;28;19917;-44
2022/07/25 02:10:31;;;;;;;;;;;;;;;;;;5006041;28;19942;-45
2022/07/25 02:12:57;;;;;;;;;;;;;;;;;;5006495;28;19944;-44
2022/07/25 02:15:23;;;;;;;;;;;;;;;;;;5006465;28;19910;-44
2022/07/25 02:17:49;;;;;;;;;;;;;;;;;;5006239;28;19913;-47
2022/07/25 02:20:15;;;;;;;;;;;;;;;;;;5008619;28;19913;-45
2022/07/25 02:22:41;;;;;;;;;;;;;;;;;;4998920;28;19921;-47
2022/07/25 02:25:07;;;;;;;;;;;;;;;;;;4990757;28;19949;-46
2022/07/25 02:27:32;;;;;;;;;;;;;;;;;;4990200;28;19922;-44
2022/07/25 02:29:58;;;;;;;;;;;;;;;;;;4995150;28;19986;-43
2022/07/25 02:32:24;;;;;;;;;;;;;;;;;;5009968;28;19909;-45
2022/07/25 02:34:50;;;;;;;;;;;;;;;;;;5009937;28;20008;-45
2022/07/25 02:37:16;;;;;;;;;;;;;;;;;;5010269;28;19996;-44
2022/07/25 02:39:42;;;;;;;;;;;;;;;;;;5008380;28;19920;-44
2022/07/25 02:42:08;;;;;;;;;;;;;;;;;;5010617;28;19917;-45
2022/07/25 02:44:34;;;;;;;;;;;;;;;;;;5009496;28;19919;-44
2022/07/25 02:47:00;;;;;;;;;;;;;;;;;;5002406;28;19917;-43
2022/07/25 02:49:26;;;;;;;;;;;;;;;;;;4990155;28;19914;-44
2022/07/25 02:51:52;;;;;;;;;;;;;;;;;;4988671;28;20006;-43
2022/07/25 02:54:18;;;;;;;;;;;;;;;;;;4990015;28;20008;-47
2022/07/25 02:56:44;;;;;;;;;;;;;;;;;;4989761;28;19936;-47
2022/07/25 02:59:10;;;;;;;;;;;;;;;;;;4990385;28;19918;-43
2022/07/25 03:01:36;;;;;;;;;;;;;;;;;;4989626;28;19913;-43
2022/07/25 03:04:02;;;;;;;;;;;;;;;;;;4989978;28;19914;-47
2022/07/25 03:06:28;;;;;;;;;;;;;;;;;;4993333;28;19914;-43
2022/07/25 03:08:54;;;;;;;;;;;;;;;;;;5009380;28;19974;-44
2022/07/25 03:11:20;;;;;;;;;;;;;;;;;;5009282;28;20012;-44
2022/07/25 03:13:46;;;;;;;;;;;;;;;;;;5008947;28;19914;-44
2022/07/25 03:16:12;;;;;;;;;;;;;;;;;;5007539;28;20004;-45
2022/07/25 03:18:38;;;;;;;;;;;;;;;;;;5009127;28;19917;-45
2022/07/25 03:21:04;;;;;;;;;;;;;;;;;;4998044;28;19957;-45
2022/07/25 03:23:30;;;;;;;;;;;;;;;;;;4989343;28;19937;-45
2022/07/25 03:25:56;;;;;;;;;;;;;;;;;;4989444;28;19910;-45
2022/07/25 03:28:22;;;;;;;;;;;;;;;;;;4989812;28;19968;-43
2022/07/25 03:30:47;;;;;;;;;;;;;;;;;;4988446;28;19932;-43
2022/07/25 03:33:13;;;;;;;;;;;;;;;;;;4989091;28;19910;-46
2022/07/25 03:35:39;;;;;;;;;;;;;;;;;;5002758;28;19925;-46
2022/07/25 03:38:06;;;;;;;;;;;;;;;;;;5009004;28;20014;-45
2022/07/25 03:40:32;;;;;;;;;;;;;;;;;;5008642;28;19909;-47
2022/07/25 03:42:58;;;;;;;;;;;;;;;;;;5008848;28;20033;-47
2022/07/25 03:45:24;;;;;;;;;;;;;;;;;;5009557;28;19945;-44
2022/07/25 03:47:50;;;;;;;;;;;;;;;;;;5008504;28;19913;-44
2022/07/25 03:50:16;;;;;;;;;;;;;;;;;;4989009;28;19928;-44
2022/07/25 03:52:42;;;;;;;;;;;;;;;;;;4988729;28;19916;-45
2022/07/25 03:55:08;;;;;;;;;;;;;;;;;;4988954;28;19917;-43
2022/07/25 03:57:34;;;;;;;;;;;;;;;;;;4988430;28;19910;-44
2022/07/25 04:00:00;;;;;;;;;;;;;;;;;;4988668;28;19945;-47
2022/07/25 04:02:26;;;;;;;;;;;;;;;;;;4988442;28;20000;-43
2022/07/25 04:04:53;;;;;;;;;;;;;;;;;;5007339;28;19919;-43
2022/07/25 04:07:18;;;;;;;;;;;;;;;;;;5008387;28;20476;-47
2022/07/25 04:09:45;;;;;;;;;;;;;;;;;;5008394;28;19921;-43
2022/07/25 04:12:11;;;;;;;;;;;;;;;;;;5007848;28;19996;-44
2022/07/25 04:14:37;;;;;;;;;;;;;;;;;;5007847;28;20008;-47
2022/07/25 04:17:03;;;;;;;;;;;;;;;;;;5008239;28;19988;-45
2022/07/25 04:19:29;;;;;;;;;;;;;;;;;;5006207;28;19913;-46
2022/07/25 04:21:55;;;;;;;;;;;;;;;;;;5008112;28;19913;-43
2022/07/25 04:24:21;;;;;;;;;;;;;;;;;;5008703;28;20004;-45
2022/07/25 04:26:47;;;;;;;;;;;;;;;;;;5004624;28;19928;-46
2022/07/25 04:29:13;;;;;;;;;;;;;;;;;;4988347;28;19928;-47
2022/07/25 04:31:39;;;;;;;;;;;;;;;;;;4987735;28;19917;-47
2022/07/25 04:34:05;;;;;;;;;;;;;;;;;;4987852;28;19918;-45
2022/07/25 04:36:31;;;;;;;;;;;;;;;;;;4988105;28;19960;-46
2022/07/25 04:38:57;;;;;;;;;;;;;;;;;;4988529;28;19941;-48
2022/07/25 04:41:22;;;;;;;;;;;;;;;;;;5001251;28;19914;-47
2022/07/25 04:43:48;;;;;;;;;;;;;;;;;;4987789;28;19948;-45
2022/07/25 04:46:14;;;;;;;;;;;;;;;;;;4987969;28;20336;-47
2022/07/25 04:48:40;;;;;;;;;;;;;;;;;;4987875;28;20008;-48
2022/07/25 04:51:06;;;;;;;;;;;;;;;;;;4988101;28;19980;-44
2022/07/25 04:53:32;;;;;;;;;;;;;;;;;;4987846;28;20005;-45
2022/07/25 04:55:58;;;;;;;;;;;;;;;;;;4987972;28;19924;-47
2022/07/25 04:58:24;;;;;;;;;;;;;;;;;;4988739;28;20620;-47
2022/07/25 05:00:50;;;;;;;;;;;;;;;;;;4991240;28;19996;-46
2022/07/25 05:03:16;;;;;;;;;;;;;;;;;;5007733;28;19917;-45
2022/07/25 05:05:42;;;;;;;;;;;;;;;;;;5007298;28;19909;-43
2022/07/25 05:08:08;;;;;;;;;;;;;;;;;;5007485;28;19913;-47
2022/07/25 05:10:34;;;;;;;;;;;;;;;;;;5003901;28;20067;-44
2022/07/25 05:13:00;;;;;;;;;;;;;;;;;;5016828;28;19917;-44
2022/07/25 05:15:26;;;;;;;;;;;;;;;;;;5006968;28;19914;-42
2022/07/25 05:17:52;;;;;;;;;;;;;;;;;;5007819;28;19914;-45
2022/07/25 05:20:18;;;;;;;;;;;;;;;;;;5006854;28;19917;-42
2022/07/25 05:22:44;;;;;;;;;;;;;;;;;;5006723;28;19910;-43
2022/07/25 05:25:10;;;;;;;;;;;;;;;;;;5006191;28;19919;-43
2022/07/25 05:27:36;;;;;;;;;;;;;;;;;;5006740;28;20004;-46
2022/07/25 05:30:02;;;;;;;;;;;;;;;;;;5007087;28;19968;-44
2022/07/25 05:32:28;;;;;;;;;;;;;;;;;;5006706;28;20398;-45
2022/07/25 05:34:54;;;;;;;;;;;;;;;;;;5007792;28;20279;-44
2022/07/25 05:37:20;;;;;;;;;;;;;;;;;;5007049;28;19918;-43
2022/07/25 05:39:46;;;;;;;;;;;;;;;;;;5006277;28;19914;-43
2022/07/25 05:42:11;;;;;;;;;;;;;;;;;;5005535;28;19914;-46
2022/07/25 05:44:37;;;;;;;;;;;;;;;;;;5006612;28;19952;-44
2022/07/25 05:47:04;;;;;;;;;;;;;;;;;;5005767;28;19910;-46
2022/07/25 05:49:30;;;;;;;;;;;;;;;;;;4986899;28;19961;-46
2022/07/25 05:51:56;;;;;;;;;;;;;;;;;;4987478;28;19953;-44
2022/07/25 05:54:22;;;;;;;;;;;;;;;;;;4988392;28;20389;-42
2022/07/25 05:56:48;;;;;;;;;;;;;;;;;;4991052;28;19918;-47
2022/07/25 05:59:14;;;;;;;;;;;;;;;;;;4991107;28;19910;-43
2022/07/25 06:01:39;;;;;;;;;;;;;;;;;;4991719;28;20001;-45
2022/07/25 06:04:05;;;;;;;;;;;;;;;;;;4991140;28;19914;-43
2022/07/25 06:06:31;;;;;;;;;;;;;;;;;;4990878;28;19913;-43
2022/07/25 06:08:57;;;;;;;;;;;;;;;;;;4991296;28;20011;-44
2022/07/25 06:11:26;;;;;;;;;;;;;;;;;;4991489;28;19976;-46
2022/07/25 06:13:52;;;;;;;;;;;;;;;;;;4991536;28;19909;-45
2022/07/25 06:16:18;;;;;;;;;;;;;;;;;;4990760;28;20000;-43
2022/07/25 06:18:44;;;;;;;;;;;;;;;;;;4991814;28;19921;-46
2022/07/25 06:21:10;;;;;;;;;;;;;;;;;;4991226;28;19918;-44
2022/07/25 06:23:36;;;;;;;;;;;;;;;;;;4990510;28;20015;-44
2022/07/25 06:26:02;;;;;;;;;;;;;;;;;;4998600;28;19914;-45
2022/07/25 06:28:28;;;;;;;;;;;;;;;;;;5010145;28;19921;-44
2022/07/25 06:30:54;;;;;;;;;;;;;;;;;;5004725;28;19921;-44
2022/07/25 06:33:20;;;;;;;;;;;;;;;;;;4991017;28;19917;-42
2022/07/25 06:35:46;;;;;;;;;;;;;;;;;;4998598;28;19913;-43
2022/07/25 06:38:11;;;;;;;;;;;;;;;;;;5006530;28;20005;-46
2022/07/25 06:40:37;;;;;;;;;;;;;;;;;;4994422;28;19924;-45
2022/07/25 06:43:03;;;;;;;;;;;;;;;;;;5001473;28;19918;-45
2022/07/25 06:45:29;;;;;;;;;;;;;;;;;;4994351;28;19921;-47
2022/07/25 06:47:55;;;;;;;;;;;;;;;;;;4999977;28;19913;-44
2022/07/25 06:50:21;;;;;;;;;;;;;;;;;;4992514;28;19921;-43
2022/07/25 06:52:47;;;;;;;;;;;;;;;;;;5008452;28;19971;-45
2022/07/25 06:55:13;;;;;;;;;;;;;;;;;;5010037;28;20370;-46
2022/07/25 06:57:39;;;;;;;;;;;;;;;;;;5010299;28;20375;-44
2022/07/25 07:00:07;;;;;;;;;;;;;;;;;;5009690;28;19924;-44
2022/07/25 07:02:35;;;;;;;;;;;;;;;;;;5007738;28;19965;-44
2022/07/25 07:05:01;;;;;;;;;;;;;;;;;;5001682;28;19918;-43
2022/07/25 07:07:27;;;;;;;;;;;;;;;;;;4990668;28;20013;-44
2022/07/25 07:09:53;;;;;;;;;;;;;;;;;;4996199;28;19936;-46
2022/07/25 07:12:19;;;;;;;;;;;;;;;;;;5008993;28;19913;-43
2022/07/25 07:14:45;;;;;;;;;;;;;;;;;;4997617;28;19910;-47
2022/07/25 07:17:10;;;;;;;;;;;;;;;;;;4996125;28;19991;-47
2022/07/25 07:19:42;;;;;;;;;;;;;;;;;;4997432;28;19914;-46
2022/07/25 07:22:08;;;;;;;;;;;;;;;;;;5002975;28;20440;-42
2022/07/25 07:24:34;;;;;;;;;;;;;;;;;;5002898;28;19910;-42
2022/07/25 07:27:00;;;;;;;;;;;;;;;;;;5012156;28;19913;-42
2022/07/25 07:29:27;;;;;;;;;;;;;;;;;;4999027;28;19922;-42
2022/07/25 07:31:53;;;;;;;;;;;;;;;;;;4994761;28;19925;-46
2022/07/25 07:34:19;;;;;;;;;;;;;;;;;;4999311;28;19917;-44
2022/07/25 07:36:46;;;;;;;;;;;;;;;;;;4992259;28;19917;-46
2022/07/25 07:39:12;;;;;;;;;;;;;;;;;;4989025;28;19913;-46
2022/07/25 07:41:38;;;;;;;;;;;;;;;;;;4994814;28;19917;-47
2022/07/25 07:44:03;;;;;;;;;;;;;;;;;;4997258;28;19914;-47
2022/07/25 07:46:29;;;;;;;;;;;;;;;;;;5005600;28;19928;-47
2022/07/25 07:48:55;;;;;;;;;;;;;;;;;;5000273;28;19924;-43
2022/07/25 07:51:21;;;;;;;;;;;;;;;;;;5009151;28;19948;-44
2022/07/25 07:56:32;;;;;;;;;;;;;;;;;;5005132;28;19928;-43
2022/07/25 07:58:57;;;;;;;;;;;;;;;;;;5008233;28;19917;-43
2022/07/25 08:01:24;;;;;;;;;;;;;;;;;;4999955;28;19976;-43
2022/07/25 08:03:49;;;;;;;;;;;;;;;;;;4992370;28;19913;-46
2022/07/25 08:06:17;;;;;;;;;;;;;;;;;;5001089;28;19921;-43
2022/07/25 08:08:43;;;;;;;;;;;;;;;;;;5002204;28;19920;-46
2022/07/25 08:11:09;;;;;;;;;;;;;;;;;;4988203;28;19910;-46
2022/07/25 08:13:37;;;;;;;;;;;;;;;;;;5006688;28;19963;-45
2022/07/25 08:16:02;;;;;;;;;;;;;;;;;;5027600;28;19909;-46
2022/07/25 08:18:28;;;;;;;;;;;;;;;;;;5015449;28;20000;-43
2022/07/25 08:20:55;;;;;;;;;;;;;;;;;;5005514;28;19913;-44
2022/07/25 08:23:24;;;;;;;;;;;;;;;;;;5008411;28;20326;-43
2022/07/25 08:25:51;;;;;;;;;;;;;;;;;;5007612;28;19914;-43
2022/07/25 08:28:16;;;;;;;;;;;;;;;;;;5007534;28;19928;-44
2022/07/25 08:30:42;;;;;;;;;;;;;;;;;;5008423;28;19918;-43
2022/07/25 08:33:09;;;;;;;;;;;;;;;;;;5006883;28;19909;-46
2022/07/25 08:35:36;;;;;;;;;;;;;;;;;;5006532;28;19909;-45
2022/07/25 08:38:02;;;;;;;;;;;;;;;;;;5007766;28;19913;-43
2022/07/25 08:40:28;;;;;;;;;;;;;;;;;;5007214;28;20381;-43
2022/07/25 08:42:55;;;;;;;;;;;;;;;;;;4989932;28;20399;-43
2022/07/25 08:45:21;;;;;;;;;;;;;;;;;;4988262;28;20390;-44
2022/07/25 08:47:47;;;;;;;;;;;;;;;;;;4991991;28;19929;-43
2022/07/25 08:50:13;;;;;;;;;;;;;;;;;;4998845;28;19925;-43
2022/07/25 08:52:39;;;;;;;;;;;;;;;;;;5006920;28;19909;-43
2022/07/25 08:55:05;;;;;;;;;;;;;;;;;;5007430;28;19932;-43
2022/07/25 08:57:31;;;;;;;;;;;;;;;;;;4989993;28;20012;-42
2022/07/25 08:59:57;;;;;;;;;;;;;;;;;;4989850;28;20513;-44
2022/07/25 09:02:24;;;;;;;;;;;;;;;;;;4992195;28;20288;-43
2022/07/25 09:04:52;;;;;;;;;;;;;;;;;;5027360;28;19924;-43
2022/07/25 09:07:17;;;;;;;;;;;;;;;;;;5026987;28;20004;-43
2022/07/25 09:09:43;;;;;;;;;;;;;;;;;;5026451;28;20047;-44
2022/07/25 09:12:09;;;;;;;;;;;;;;;;;;5026591;28;20393;-43
2022/07/25 09:14:35;;;;;;;;;;;;;;;;;;5026217;28;19916;-43
2022/07/25 09:17:02;;;;;;;;;;;;;;;;;;4994910;28;20291;-43
2022/07/25 09:19:30;;;;;;;;;;;;;;;;;;4993474;28;19921;-42
2022/07/25 09:21:56;;;;;;;;;;;;;;;;;;4994765;28;19914;-43
2022/07/25 09:24:22;;;;;;;;;;;;;;;;;;4989014;28;20049;-42
2022/07/25 09:26:48;;;;;;;;;;;;;;;;;;4992582;28;19918;-43
2022/07/25 09:29:14;;;;;;;;;;;;;;;;;;4987604;28;19930;-44
2022/07/25 09:31:41;;;;;;;;;;;;;;;;;;5002173;28;19999;-43
2022/07/25 09:34:08;;;;;;;;;;;;;;;;;;5007261;28;19921;-44
2022/07/25 09:36:38;;;;;;;;;;;;;;;;;;5006768;28;19916;-44
2022/07/25 09:39:05;;;;;;;;;;;;;;;;;;5007259;28;19913;-45
2022/07/25 09:41:31;;;;;;;;;;;;;;;;;;5005813;28;19940;-42
2022/07/25 09:43:57;;;;;;;;;;;;;;;;;;4995187;28;20306;-42
2022/07/25 09:46:23;;;;;;;;;;;;;;;;;;5001130;28;19913;-43
2022/07/25 09:48:49;;;;;;;;;;;;;;;;;;5000961;28;19917;-43
2022/07/25 09:51:15;;;;;;;;;;;;;;;;;;4991029;28;20172;-43
2022/07/25 09:53:40;;;;;;;;;;;;;;;;;;4987251;28;20033;-43
2022/07/25 09:56:06;;;;;;;;;;;;;;;;;;4987486;28;19910;-44
2022/07/25 09:58:32;;;;;;;;;;;;;;;;;;4987660;28;19918;-42
2022/07/25 10:00:58;;;;;;;;;;;;;;;;;;4994427;28;20452;-43
2022/07/25 10:03:24;;;;;;;;;;;;;;;;;;5015317;28;20007;-43
2022/07/25 10:05:50;;;;;;;;;;;;;;;;;;5013962;28;19913;-43
2022/07/25 10:08:17;;;;;;;;;;;;;;;;;;5003469;28;19910;-42
2022/07/25 10:10:44;;;;;;;;;;;;;;;;;;4987382;28;20016;-42
2022/07/25 10:13:10;;;;;;;;;;;;;;;;;;5009152;28;19909;-43
2022/07/25 10:15:36;;;;;;;;;;;;;;;;;;5025694;28;20012;-43
2022/07/25 10:18:02;;;;;;;;;;;;;;;;;;5026042;28;19913;-44
2022/07/25 10:20:29;;;;;;;;;;;;;;;;;;5017646;28;19918;-44
2022/07/25 10:22:55;;;;;;;;;;;;;;;;;;4990396;28;19957;-44
2022/07/25 10:25:21;;;;;;;;;;;;;;;;;;5011059;28;19949;-46
2022/07/25 10:27:51;;;;;;;;;;;;;;;;;;5005455;28;20393;-46
2022/07/25 10:30:19;;;;;;;;;;;;;;;;;;5006096;28;20113;-46
2022/07/25 10:32:46;;;;;;;;;;;;;;;;;;5018990;28;20390;-45
2022/07/25 10:35:12;;;;;;;;;;;;;;;;;;4991927;28;19918;-45
2022/07/25 10:37:38;;;;;;;;;;;;;;;;;;4987217;28;19945;-44
2022/07/25 10:40:03;;;;;;;;;;;;;;;;;;4988180;28;20421;-44
2022/07/25 10:42:29;;;;;;;;;;;;;;;;;;4989456;28;19910;-43
2022/07/25 10:44:58;;;;;;;;;;;;;;;;;;4990934;28;19915;-43
2022/07/25 10:47:25;;;;;;;;;;;;;;;;;;4990553;28;19914;-45
2022/07/25 10:49:51;;;;;;;;;;;;;;;;;;4994652;28;19940;-45
2022/07/25 10:52:17;;;;;;;;;;;;;;;;;;4999606;28;19914;-47
2022/07/25 10:54:43;;;;;;;;;;;;;;;;;;4991100;28;20299;-43
2022/07/25 10:57:09;;;;;;;;;;;;;;;;;;4997742;28;19914;-43
2022/07/25 10:59:35;;;;;;;;;;;;;;;;;;4992852;28;19910;-44
2022/07/25 11:02:01;;;;;;;;;;;;;;;;;;4989394;28;19917;-44
2022/07/25 11:04:28;;;;;;;;;;;;;;;;;;4990547;28;19937;-44
2022/07/25 11:06:54;;;;;;;;;;;;;;;;;;4991329;28;20346;-43
2022/07/25 11:09:19;;;;;;;;;;;;;;;;;;5006292;28;19968;-42
2022/07/25 11:11:48;;;;;;;;;;;;;;;;;;4999780;28;19917;-45
2022/07/25 11:14:15;;;;;;;;;;;;;;;;;;4993876;28;20001;-44
2022/07/25 11:16:41;;;;;;;;;;;;;;;;;;4990564;28;19914;-44
2022/07/25 11:19:07;;;;;;;;;;;;;;;;;;4995365;28;19924;-45
2022/07/25 11:21:33;;;;;;;;;;;;;;;;;;4995688;28;19968;-47
2022/07/25 11:23:59;;;;;;;;;;;;;;;;;;5001267;28;19925;-45
2022/07/25 11:26:25;;;;;;;;;;;;;;;;;;5008571;28;19913;-43
2022/07/25 11:28:51;;;;;;;;;;;;;;;;;;4990911;28;19918;-44
2022/07/25 11:31:17;;;;;;;;;;;;;;;;;;4990015;28;19909;-43
2022/07/25 11:33:43;;;;;;;;;;;;;;;;;;4991402;28;19976;-44
2022/07/25 11:36:09;;;;;;;;;;;;;;;;;;5008721;28;20012;-43
2022/07/25 11:38:36;;;;;;;;;;;;;;;;;;5001603;28;19909;-44
2022/07/25 11:41:02;;;;;;;;;;;;;;;;;;4989559;28;19918;-45
2022/07/25 11:43:28;;;;;;;;;;;;;;;;;;4988566;28;19926;-44
2022/07/25 11:45:54;;;;;;;;;;;;;;;;;;4990087;28;20395;-44
2022/07/25 11:48:21;;;;;;;;;;;;;;;;;;4993747;28;20000;-45
2022/07/25 11:50:47;;;;;;;;;;;;;;;;;;4993218;28;19921;-43
2022/07/25 11:53:13;;;;;;;;;;;;;;;;;;4993483;28;19945;-44
2022/07/25 11:55:39;;;;;;;;;;;;;;;;;;4999415;28;19909;-47
2022/07/25 11:58:05;;;;;;;;;;;;;;;;;;5007155;28;19967;-43
2022/07/25 12:00:31;;;;;;;;;;;;;;;;;;5009116;28;20367;-45
2022/07/25 12:02:57;;;;;;;;;;;;;;;;;;5009380;28;20106;-45
2022/07/25 12:05:23;;;;;;;;;;;;;;;;;;5002762;28;19920;-43
2022/07/25 12:07:49;;;;;;;;;;;;;;;;;;4989659;28;20021;-45
2022/07/25 12:10:15;;;;;;;;;;;;;;;;;;4989567;28;19918;-45
2022/07/25 12:12:41;;;;;;;;;;;;;;;;;;4989321;28;19910;-44
2022/07/25 12:15:07;;;;;;;;;;;;;;;;;;4989577;28;20194;-44
2022/07/25 12:17:33;;;;;;;;;;;;;;;;;;5006250;28;19913;-47
2022/07/25 12:19:59;;;;;;;;;;;;;;;;;;5005266;28;19918;-43
2022/07/25 12:22:25;;;;;;;;;;;;;;;;;;4994489;28;19910;-44
2022/07/25 12:24:51;;;;;;;;;;;;;;;;;;4989597;28;20012;-43
2022/07/25 12:27:17;;;;;;;;;;;;;;;;;;4999313;28;19909;-44
2022/07/25 12:29:43;;;;;;;;;;;;;;;;;;5000951;28;19957;-42
2022/07/25 12:32:09;;;;;;;;;;;;;;;;;;4992426;28;20005;-43
2022/07/25 12:34:35;;;;;;;;;;;;;;;;;;4997258;28;20004;-45
2022/07/25 12:37:00;;;;;;;;;;;;;;;;;;4992679;28;19914;-44
2022/07/25 12:39:26;;;;;;;;;;;;;;;;;;4999711;28;20010;-43
2022/07/25 12:41:53;;;;;;;;;;;;;;;;;;5001470;28;19914;-43
2022/07/25 12:44:19;;;;;;;;;;;;;;;;;;5005749;28;19921;-45
2022/07/25 12:46:44;;;;;;;;;;;;;;;;;;4987965;28;19918;-45
2022/07/25 12:49:10;;;;;;;;;;;;;;;;;;4995609;28;19917;-44
2022/07/25 12:51:36;;;;;;;;;;;;;;;;;;4996158;28;19949;-44
2022/07/25 12:54:02;;;;;;;;;;;;;;;;;;4995425;28;19957;-43
2022/07/25 12:56:28;;;;;;;;;;;;;;;;;;4992881;28;19981;-44
2022/07/25 12:58:54;;;;;;;;;;;;;;;;;;4995324;28;19917;-43
2022/07/25 13:01:20;;;;;;;;;;;;;;;;;;5002183;28;19959;-43
2022/07/25 13:03:46;;;;;;;;;;;;;;;;;;5001697;28;19924;-45
2022/07/25 13:06:13;;;;;;;;;;;;;;;;;;4997745;28;19914;-43
2022/07/25 13:08:40;;;;;;;;;;;;;;;;;;4995359;28;20016;-45
2022/07/25 13:11:06;;;;;;;;;;;;;;;;;;4988788;28;19921;-45
2022/07/25 13:13:31;;;;;;;;;;;;;;;;;;5000398;28;19914;-44
2022/07/25 13:15:57;;;;;;;;;;;;;;;;;;5001639;28;19924;-44
2022/07/25 13:18:23;;;;;;;;;;;;;;;;;;5007417;28;19984;-47
2022/07/25 13:20:49;;;;;;;;;;;;;;;;;;5002059;28;19917;-43
2022/07/25 13:23:15;;;;;;;;;;;;;;;;;;4997474;28;19975;-44
2022/07/25 13:25:41;;;;;;;;;;;;;;;;;;4996161;28;19935;-47
2022/07/25 13:28:07;;;;;;;;;;;;;;;;;;5007435;28;19921;-46
2022/07/25 13:30:33;;;;;;;;;;;;;;;;;;4997809;28;19922;-44
2022/07/25 13:32:59;;;;;;;;;;;;;;;;;;4996399;28;20496;-44
2022/07/25 13:35:25;;;;;;;;;;;;;;;;;;5006466;28;19992;-42
2022/07/25 13:37:51;;;;;;;;;;;;;;;;;;4998607;28;19929;-45
2022/07/25 13:40:17;;;;;;;;;;;;;;;;;;5002680;28;19914;-44
2022/07/25 13:42:43;;;;;;;;;;;;;;;;;;4998984;28;20376;-46
2022/07/25 13:45:09;;;;;;;;;;;;;;;;;;4997203;28;19914;-45
2022/07/25 13:47:35;;;;;;;;;;;;;;;;;;5000305;28;19940;-43
2022/07/25 13:50:01;;;;;;;;;;;;;;;;;;4995840;28;20306;-43
2022/07/25 13:52:27;;;;;;;;;;;;;;;;;;4996559;28;19922;-44
2022/07/25 13:54:53;;;;;;;;;;;;;;;;;;4994969;28;19918;-42
2022/07/25 13:57:19;;;;;;;;;;;;;;;;;;4998254;28;19925;-44
2022/07/25 13:59:45;;;;;;;;;;;;;;;;;;4998426;28;20400;-47
2022/07/25 14:02:10;;;;;;;;;;;;;;;;;;4997755;28;20009;-43
2022/07/25 14:04:36;;;;;;;;;;;;;;;;;;4994848;28;19928;-43
2022/07/25 14:07:02;;;;;;;;;;;;;;;;;;5003168;28;19913;-47
2022/07/25 14:09:29;;;;;;;;;;;;;;;;;;4998967;28;19917;-46
2022/07/25 14:11:55;;;;;;;;;;;;;;;;;;5000861;28;19917;-43
2022/07/25 14:14:21;;;;;;;;;;;;;;;;;;4996924;28;19910;-44
2022/07/25 14:16:47;;;;;;;;;;;;;;;;;;5003962;28;20318;-44
2022/07/25 14:19:13;;;;;;;;;;;;;;;;;;4991258;28;20402;-43
2022/07/25 14:21:39;;;;;;;;;;;;;;;;;;5007761;28;19913;-46
2022/07/25 14:24:06;;;;;;;;;;;;;;;;;;5005260;28;19918;-42
2022/07/25 14:26:32;;;;;;;;;;;;;;;;;;5008416;28;19960;-47
2022/07/25 14:28:58;;;;;;;;;;;;;;;;;;5001922;28;19925;-45
2022/07/25 14:31:24;;;;;;;;;;;;;;;;;;4996784;28;19917;-43
2022/07/25 14:33:50;;;;;;;;;;;;;;;;;;4995182;28;19935;-43
2022/07/25 14:36:16;;;;;;;;;;;;;;;;;;4994230;28;19918;-44
2022/07/25 14:38:42;;;;;;;;;;;;;;;;;;5000658;28;19960;-47
2022/07/25 14:41:08;;;;;;;;;;;;;;;;;;5005994;28;20334;-44
2022/07/25 14:43:34;;;;;;;;;;;;;;;;;;4998156;28;19925;-46
2022/07/25 14:46:00;;;;;;;;;;;;;;;;;;4990746;28;19968;-44
2022/07/25 14:48:26;;;;;;;;;;;;;;;;;;4990516;28;19910;-42
2022/07/25 14:50:52;;;;;;;;;;;;;;;;;;4990989;28;20012;-42
2022/07/25 14:53:18;;;;;;;;;;;;;;;;;;5007546;28;19921;-46
2022/07/25 14:55:44;;;;;;;;;;;;;;;;;;5004584;28;20367;-43
2022/07/25 14:58:10;;;;;;;;;;;;;;;;;;5009655;28;19917;-45
2022/07/25 15:00:40;;;;;;;;;;;;;;;;;;5002617;28;20375;-43
2022/07/25 15:03:07;;;;;;;;;;;;;;;;;;4990323;28;19910;-43
2022/07/25 15:05:34;;;;;;;;;;;;;;;;;;4989972;28;19921;-44
2022/07/25 15:08:00;;;;;;;;;;;;;;;;;;4990702;28;19960;-43
2022/07/25 15:10:26;;;;;;;;;;;;;;;;;;4989569;28;19964;-42
2022/07/25 15:12:52;;;;;;;;;;;;;;;;;;4990952;28;19914;-46
2022/07/25 15:15:18;;;;;;;;;;;;;;;;;;4997883;28;20433;-43
2022/07/25 15:17:44;;;;;;;;;;;;;;;;;;5003596;28;19936;-43
2022/07/25 15:20:10;;;;;;;;;;;;;;;;;;5010096;28;19913;-44
2022/07/25 15:22:36;;;;;;;;;;;;;;;;;;5009740;28;19910;-44
2022/07/25 15:25:04;;;;;;;;;;;;;;;;;;5009795;28;19916;-43
2022/07/25 15:27:30;;;;;;;;;;;;;;;;;;5008520;28;19927;-43
2022/07/25 15:29:56;;;;;;;;;;;;;;;;;;5006991;28;19921;-43
2022/07/25 15:32:22;;;;;;;;;;;;;;;;;;4992990;28;19910;-45
2022/07/25 15:34:48;;;;;;;;;;;;;;;;;;4990182;28;20024;-45
2022/07/25 15:37:14;;;;;;;;;;;;;;;;;;5006629;28;19924;-43
2022/07/25 15:39:39;;;;;;;;;;;;;;;;;;4999904;28;19914;-42
2022/07/25 15:42:05;;;;;;;;;;;;;;;;;;4990195;28;19914;-46
2022/07/25 15:44:31;;;;;;;;;;;;;;;;;;4999925;28;19921;-42
2022/07/25 15:46:57;;;;;;;;;;;;;;;;;;4993119;28;19924;-44
2022/07/25 15:49:23;;;;;;;;;;;;;;;;;;4990640;28;19957;-43
2022/07/25 15:51:49;;;;;;;;;;;;;;;;;;5006770;28;19955;-43
2022/07/25 15:54:15;;;;;;;;;;;;;;;;;;5003479;28;19922;-44
2022/07/25 15:56:41;;;;;;;;;;;;;;;;;;4994884;28;19917;-56
2022/07/25 15:59:08;;;;;;;;;;;;;;;;;;5006931;28;19924;-57
2022/07/25 16:01:34;;;;;;;;;;;;;;;;;;5000789;28;19932;-56
2022/07/25 16:04:00;;;;;;;;;;;;;;;;;;4991592;28;19922;-57
2022/07/25 16:06:26;;;;;;;;;;;;;;;;;;4991506;28;19918;-57
2022/07/25 16:08:52;;;;;;;;;;;;;;;;;;4995367;28;19917;-56
2022/07/25 16:11:18;;;;;;;;;;;;;;;;;;4999766;28;19926;-57
2022/07/25 16:13:44;;;;;;;;;;;;;;;;;;4996174;28;19917;-57
2022/07/25 16:16:10;;;;;;;;;;;;;;;;;;5001108;28;20044;-56
2022/07/25 16:18:36;;;;;;;;;;;;;;;;;;4997778;28;19917;-56
2022/07/25 16:21:02;;;;;;;;;;;;;;;;;;5009108;28;19971;-56
2022/07/25 16:23:30;;;;;;;;;;;;;;;;;;4999838;28;19936;-56
2022/07/25 16:25:57;;;;;;;;;;;;;;;;;;4989405;28;19947;-55
2022/07/25 16:28:23;;;;;;;;;;;;;;;;;;4989833;28;19925;-56
2022/07/25 16:30:49;;;;;;;;;;;;;;;;;;4996076;28;19921;-56
2022/07/25 16:33:15;;;;;;;;;;;;;;;;;;4996785;28;19914;-56
2022/07/25 16:35:41;;;;;;;;;;;;;;;;;;5008034;28;19914;-56
2022/07/25 16:38:08;;;;;;;;;;;;;;;;;;4998175;28;20291;-57
2022/07/25 16:40:34;;;;;;;;;;;;;;;;;;4989566;28;19917;-57
2022/07/25 16:43:00;;;;;;;;;;;;;;;;;;5004392;28;20711;-57